createdAt,value
2019-03-19T00:03:08.408Z,2.37
2019-03-19T00:07:11.955Z,2.33
2019-03-19T00:11:15.497Z,2.20
2019-03-19T00:15:19.090Z,2.24
2019-03-19T00:19:22.707Z,2.13
2019-03-19T00:23:30.665Z,2.24
2019-03-19T00:27:34.654Z,2.15
2019-03-19T00:31:38.247Z,2.21
2019-03-19T00:35:41.873Z,2.12
2019-03-19T00:39:47.186Z,2.01
2019-03-19T00:43:51.054Z,2.04
2019-03-19T00:47:55.569Z,2.16
2019-03-19T00:51:59.236Z,2.39
2019-03-19T00:56:03.937Z,2.53
2019-03-19T01:00:18.451Z,2.63
2019-03-19T01:04:21.944Z,2.71
2019-03-19T01:08:25.515Z,2.76
2019-03-19T01:12:29.179Z,2.72
2019-03-19T01:16:32.746Z,2.74
2019-03-19T01:20:43.174Z,2.59
2019-03-19T01:24:46.766Z,2.53
2019-03-19T01:28:50.338Z,2.36
2019-03-19T01:32:55.487Z,2.17
2019-03-19T01:36:59.171Z,2.14
2019-03-19T01:41:02.807Z,2.05
2019-03-19T01:45:09.447Z,2.01
2019-03-19T01:49:13.011Z,1.95
2019-03-19T01:53:16.545Z,1.99
2019-03-19T01:57:20.116Z,2.12
2019-03-19T02:01:23.609Z,2.37
2019-03-19T02:05:29.049Z,2.46
2019-03-19T02:09:32.333Z,2.42
2019-03-19T02:13:35.887Z,2.47
2019-03-19T02:17:41.181Z,2.39
2019-03-19T02:21:44.635Z,2.49
2019-03-19T02:25:54.422Z,2.38
2019-03-19T02:29:58.035Z,2.41
2019-03-19T02:34:01.535Z,2.31
2019-03-19T02:38:05.198Z,2.16
2019-03-19T02:42:08.738Z,2.04
2019-03-19T02:46:12.339Z,1.83
2019-03-19T02:50:19.989Z,1.83
2019-03-19T02:54:23.643Z,1.83
2019-03-19T02:58:27.378Z,1.71
2019-03-19T03:02:32.771Z,1.82
2019-03-19T03:06:36.386Z,1.78
2019-03-19T03:10:39.906Z,1.86
2019-03-19T03:14:46.150Z,1.84
2019-03-19T03:18:48.698Z,1.87
2019-03-19T03:22:52.821Z,1.99
2019-03-19T03:26:56.395Z,2.05
2019-03-19T03:31:00.969Z,1.99
2019-03-19T03:35:05.422Z,1.80
2019-03-19T03:39:09.023Z,1.74
2019-03-19T03:43:12.745Z,1.75
2019-03-19T03:47:16.248Z,1.74
2019-03-19T03:51:19.853Z,1.69
2019-03-19T03:55:23.353Z,1.69
2019-03-19T03:59:27.058Z,1.80
2019-03-19T04:03:30.552Z,1.73
2019-03-19T04:07:36.793Z,1.77
2019-03-19T04:11:43.502Z,1.66
2019-03-19T04:15:47.452Z,1.74
2019-03-19T04:19:51.044Z,1.82
2019-03-19T04:23:55.578Z,1.79
2019-03-19T04:27:59.143Z,1.71
2019-03-19T04:32:04.528Z,1.67
2019-03-19T04:36:08.127Z,1.53
2019-03-19T04:40:13.147Z,1.47
2019-03-19T04:44:18.449Z,1.49
2019-03-19T04:48:28.832Z,1.42
2019-03-19T04:52:32.434Z,1.44
2019-03-19T04:56:36.040Z,1.63
2019-03-19T05:00:39.597Z,1.91
2019-03-19T05:04:43.146Z,1.88
2019-03-19T05:08:46.757Z,1.88
2019-03-19T05:12:50.226Z,1.75
2019-03-19T05:16:53.723Z,1.59
2019-03-19T05:20:57.247Z,1.45
2019-03-19T05:25:08.702Z,1.46
2019-03-19T05:29:12.433Z,1.40
2019-03-19T05:33:16.050Z,1.38
2019-03-19T05:37:25.396Z,1.51
2019-03-19T05:41:30.747Z,1.52
2019-03-19T05:45:34.253Z,1.45
2019-03-19T05:49:37.730Z,1.50
2019-03-19T05:53:41.284Z,1.90
2019-03-19T05:57:49.912Z,2.41
2019-03-19T06:01:53.259Z,2.39
2019-03-19T06:05:56.767Z,3.39
2019-03-19T06:10:00.399Z,3.71
2019-03-19T06:14:03.910Z,3.34
2019-03-19T06:18:07.670Z,3.72
2019-03-19T06:22:13.760Z,4.24
2019-03-19T06:26:19.324Z,4.28
2019-03-19T06:30:24.368Z,3.99
2019-03-19T06:34:28.042Z,4.21
2019-03-19T06:38:31.631Z,4.46
2019-03-19T06:42:35.279Z,5.67
2019-03-19T06:46:38.853Z,5.21
2019-03-19T06:50:45.504Z,5.22
2019-03-19T06:54:49.282Z,5.62
2019-03-19T06:58:52.798Z,6.02
2019-03-19T07:02:56.307Z,7.39
2019-03-19T07:06:59.818Z,7.37
2019-03-19T07:11:09.092Z,8.98
2019-03-19T07:15:20.267Z,9.88
2019-03-19T07:19:23.843Z,10.01
2019-03-19T07:23:28.329Z,8.98
2019-03-19T07:27:39.054Z,7.53
2019-03-19T07:31:44.219Z,6.44
2019-03-19T07:35:51.908Z,4.76
2019-03-19T07:39:53.067Z,4.28
2019-03-19T07:43:58.227Z,4.10
2019-03-19T07:48:03.531Z,4.02
2019-03-19T07:52:07.027Z,3.95
2019-03-19T07:56:14.778Z,4.39
2019-03-19T08:00:19.178Z,5.17
2019-03-19T08:04:22.759Z,5.49
2019-03-19T08:08:26.394Z,5.28
2019-03-19T08:12:33.447Z,5.72
2019-03-19T08:16:36.203Z,5.79
2019-03-19T08:20:39.873Z,6.26
2019-03-19T08:24:43.541Z,6.42
2019-03-19T08:28:55.092Z,6.74
2019-03-19T08:32:56.318Z,6.97
2019-03-19T08:36:59.984Z,8.04
2019-03-19T08:41:05.615Z,9.72
2019-03-19T08:45:12.249Z,10.87
2019-03-19T08:49:23.855Z,13.89
2019-03-19T08:53:57.359Z,16.37
2019-03-19T09:02:36.496Z,16.73
2019-03-19T09:07:34.914Z,17.25
2019-03-19T09:11:03.670Z,14.76
2019-03-19T09:15:10.413Z,15.74
2019-03-19T09:19:13.979Z,15.94
2019-03-19T09:23:27.158Z,17.07
2019-03-19T09:27:28.281Z,16.49
2019-03-19T09:31:36.891Z,16.14
2019-03-19T09:35:40.494Z,16.08
2019-03-19T09:39:44.066Z,14.30
2019-03-19T09:43:49.160Z,12.26
2019-03-19T09:47:52.788Z,11.62
2019-03-19T09:51:56.368Z,9.21
2019-03-19T09:55:59.900Z,9.21
2019-03-19T10:00:05.188Z,12.61
2019-03-19T10:04:15.745Z,13.96
2019-03-19T10:08:25.227Z,11.71
2019-03-19T10:12:28.779Z,10.81
2019-03-19T10:16:32.278Z,9.61
2019-03-19T10:20:35.955Z,9.22
2019-03-19T10:24:41.093Z,8.44
2019-03-19T10:28:44.676Z,7.73
2019-03-19T10:32:48.227Z,7.77
2019-03-19T10:36:51.911Z,6.65
2019-03-19T10:41:01.122Z,7.66
2019-03-19T10:45:16.493Z,10.29
2019-03-19T10:49:19.997Z,13.31
2019-03-19T10:53:25.117Z,10.16
2019-03-19T10:57:29.808Z,8.89
2019-03-19T11:01:33.760Z,8.79
2019-03-19T11:05:40.378Z,9.01
2019-03-19T11:09:49.807Z,8.62
2019-03-19T11:13:53.383Z,12.39
2019-03-19T11:18:00.376Z,11.70
2019-03-19T11:22:03.915Z,12.03
2019-03-19T11:26:07.432Z,11.37
2019-03-19T11:30:25.049Z,10.44
2019-03-19T11:34:28.638Z,9.55
2019-03-19T11:38:32.198Z,8.66
2019-03-19T11:42:35.725Z,8.95
2019-03-19T11:46:39.241Z,9.10
2019-03-19T11:50:42.795Z,9.88
2019-03-19T11:54:47.198Z,10.34
2019-03-19T11:58:50.755Z,9.40
2019-03-19T12:02:54.324Z,9.02
2019-03-19T12:07:04.110Z,8.79
2019-03-19T12:11:07.671Z,9.57
2019-03-19T12:15:24.607Z,9.57
2019-03-19T12:19:33.446Z,9.06
2019-03-19T12:23:38.610Z,9.06
2019-03-19T12:27:42.281Z,8.57
2019-03-19T12:31:45.818Z,8.53
2019-03-19T12:35:53.817Z,9.58
2019-03-19T12:40:03.554Z,10.47
2019-03-19T12:44:07.143Z,11.28
2019-03-19T12:48:11.004Z,11.57
2019-03-19T12:52:14.650Z,10.22
2019-03-19T12:56:18.352Z,10.79
2019-03-19T13:00:55.473Z,10.22
2019-03-19T13:04:32.180Z,10.54
2019-03-19T13:08:35.748Z,10.83
2019-03-19T13:12:41.350Z,11.65
2019-03-19T13:16:47.543Z,11.32
2019-03-19T13:20:53.467Z,9.92
2019-03-19T13:24:56.728Z,9.27
2019-03-19T13:29:03.135Z,8.90
2019-03-19T13:33:08.487Z,8.60
2019-03-19T13:37:12.087Z,8.64
2019-03-19T13:41:18.830Z,10.01
2019-03-19T13:45:28.581Z,10.36
2019-03-19T13:49:44.143Z,9.57
2019-03-19T13:53:49.899Z,9.89
2019-03-19T13:57:53.746Z,9.23
2019-03-19T14:01:57.373Z,9.28
2019-03-19T14:06:01.299Z,9.26
2019-03-19T14:10:07.995Z,9.04
2019-03-19T14:14:12.435Z,8.86
2019-03-19T14:18:15.981Z,8.52
2019-03-19T14:22:20.463Z,8.59
2019-03-19T14:26:24.137Z,8.82
2019-03-19T14:30:27.840Z,9.47
2019-03-19T14:34:34.178Z,9.20
2019-03-19T14:38:46.746Z,9.28
2019-03-19T14:42:45.209Z,9.48
2019-03-19T14:46:50.643Z,9.35
2019-03-19T14:50:54.209Z,9.14
2019-03-19T14:54:57.757Z,9.21
2019-03-19T14:59:01.309Z,9.09
2019-03-19T15:03:04.898Z,8.85
2019-03-19T15:07:10.917Z,9.28
2019-03-19T15:11:14.475Z,9.59
2019-03-19T15:15:18.745Z,9.58
2019-03-19T15:19:22.222Z,9.46
2019-03-19T15:23:25.783Z,8.85
2019-03-19T15:27:31.198Z,8.84
2019-03-19T15:31:34.799Z,8.82
2019-03-19T15:35:38.334Z,8.71
2019-03-19T15:39:41.930Z,8.47
2019-03-19T15:43:45.567Z,8.10
2019-03-19T15:47:49.052Z,7.83
2019-03-19T15:51:54.374Z,7.60
2019-03-19T15:55:57.888Z,7.74
2019-03-19T16:00:01.413Z,7.53
2019-03-19T16:04:04.970Z,7.36
2019-03-19T16:08:08.533Z,7.19
2019-03-19T16:12:12.055Z,7.56
2019-03-19T16:16:17.281Z,7.82
2019-03-19T16:20:21.692Z,7.68
2019-03-19T16:24:27.718Z,7.58
2019-03-19T16:28:31.239Z,7.50
2019-03-19T16:32:34.689Z,7.44
2019-03-19T16:36:39.954Z,7.47
2019-03-19T16:40:43.489Z,7.57
2019-03-19T16:44:47.045Z,7.57
2019-03-19T16:48:50.642Z,7.41
2019-03-19T16:52:54.243Z,7.12
2019-03-19T16:56:57.848Z,6.78
2019-03-19T17:01:01.323Z,6.61
2019-03-19T17:05:07.946Z,6.52
2019-03-19T17:09:11.573Z,6.47
2019-03-19T17:13:15.155Z,6.40
2019-03-19T17:17:18.791Z,6.21
2019-03-19T17:21:22.286Z,6.05
2019-03-19T17:25:26.625Z,5.98
2019-03-19T17:29:31.311Z,5.83
2019-03-19T17:33:34.890Z,5.67
2019-03-19T17:37:38.694Z,5.67
2019-03-19T17:41:44.160Z,5.50
2019-03-19T17:45:47.703Z,5.25
2019-03-19T17:49:51.321Z,5.06
2019-03-19T17:53:59.917Z,4.74
2019-03-19T17:58:03.445Z,4.53
2019-03-19T18:02:11.736Z,4.34
2019-03-19T18:06:15.436Z,4.20
2019-03-19T18:10:22.430Z,4.02
2019-03-19T18:14:28.427Z,3.94
2019-03-19T18:18:32.064Z,3.96
2019-03-19T18:22:37.334Z,3.81
2019-03-19T18:26:42.142Z,3.71
2019-03-19T18:30:46.031Z,3.63
2019-03-19T18:34:50.416Z,3.62
2019-03-19T18:38:55.642Z,3.51
2019-03-19T18:42:59.633Z,2.66
2019-03-19T18:47:03.553Z,2.66
2019-03-19T18:51:07.405Z,2.36
2019-03-19T18:55:11.727Z,2.13
2019-03-19T18:59:15.598Z,2.04
2019-03-19T19:03:19.607Z,2.05
2019-03-19T19:07:23.316Z,2.05
2019-03-19T19:11:26.899Z,2.03
2019-03-19T19:15:30.617Z,2.02
2019-03-19T19:19:34.339Z,1.97
2019-03-19T19:23:40.862Z,1.89
2019-03-19T19:27:45.652Z,1.97
2019-03-19T19:31:49.403Z,1.81
2019-03-19T19:35:53.020Z,1.80
2019-03-19T19:39:57.660Z,1.64
2019-03-19T19:44:01.241Z,1.76
2019-03-19T19:48:04.929Z,1.62
2019-03-19T19:52:08.571Z,1.54
2019-03-19T19:56:12.407Z,1.40
2019-03-19T20:00:22.463Z,1.27
2019-03-19T20:04:26.069Z,1.22
2019-03-19T20:08:29.679Z,1.14
2019-03-19T20:12:33.293Z,1.02
2019-03-19T20:16:36.862Z,0.88
2019-03-19T20:20:40.418Z,0.72
2019-03-19T20:24:44.029Z,0.75
2019-03-19T20:28:47.647Z,0.93
2019-03-19T20:32:51.257Z,1.08
2019-03-19T20:36:55.198Z,0.96
2019-03-19T20:40:59.002Z,0.75
2019-03-19T20:45:02.633Z,0.76
2019-03-19T20:49:06.180Z,0.72
2019-03-19T20:53:12.710Z,0.43
2019-03-19T20:57:16.319Z,0.35
2019-03-19T21:01:20.138Z,0.19
2019-03-19T21:05:23.854Z,0.16
2019-03-19T21:09:27.569Z,0.15
2019-03-19T21:13:31.184Z,0.27
2019-03-19T21:17:34.803Z,0.29
2019-03-19T21:21:38.411Z,0.10
2019-03-19T21:25:42.023Z,0.02
2019-03-19T21:29:45.539Z,0.07
2019-03-19T21:33:51.440Z,-0.07
2019-03-19T21:37:54.613Z,-0.14
2019-03-19T21:41:58.226Z,-0.11
2019-03-19T21:46:01.798Z,-0.23
2019-03-19T21:50:08.535Z,-0.09
2019-03-19T21:54:12.141Z,-0.15
2019-03-19T21:58:16.066Z,-0.29
2019-03-19T22:02:19.589Z,-0.35
2019-03-19T22:06:23.293Z,-0.25
2019-03-19T22:10:26.825Z,-0.34
2019-03-19T22:14:30.418Z,-0.52
2019-03-19T22:18:34.028Z,-0.40
2019-03-19T22:22:37.747Z,-0.28
2019-03-19T22:26:41.354Z,-0.58
2019-03-19T22:30:44.969Z,-0.67
2019-03-19T22:34:48.693Z,-0.73
2019-03-19T22:38:52.303Z,-0.77
2019-03-19T22:42:55.918Z,-0.67
2019-03-19T22:46:59.533Z,-0.58
2019-03-19T22:51:03.139Z,-0.44
2019-03-19T22:55:09.417Z,-0.35
2019-03-19T22:59:13.137Z,-0.71
2019-03-19T23:03:16.858Z,-0.70
2019-03-19T23:07:20.568Z,-0.68
2019-03-19T23:11:24.382Z,-0.76
2019-03-19T23:15:28.005Z,-0.68
2019-03-19T23:19:31.613Z,-0.86
2019-03-19T23:23:35.224Z,-0.85
2019-03-19T23:27:38.945Z,-0.69
2019-03-19T23:31:42.558Z,-0.83
2019-03-19T23:35:46.272Z,-0.88
2019-03-19T23:39:51.014Z,-0.82
2019-03-19T23:43:54.866Z,-1.11
2019-03-19T23:47:58.446Z,-1.04
2019-03-19T23:52:02.063Z,-1.15
2019-03-19T23:56:05.672Z,-1.20
